createdAt,value
2023-01-18T00:17:15.746Z,442
2023-01-18T00:37:16.321Z,434
2023-01-18T00:57:16.335Z,436
2023-01-18T01:17:16.354Z,438
2023-01-18T01:37:16.385Z,435
2023-01-18T01:57:15.886Z,430
2023-01-18T02:17:15.943Z,432
2023-01-18T02:57:16.470Z,428
2023-01-18T03:17:16.317Z,425
2023-01-18T03:37:16.533Z,427
2023-01-18T03:57:16.554Z,425
2023-01-18T04:17:16.587Z,424
2023-01-18T04:37:16.618Z,425
2023-01-18T04:57:16.661Z,430
2023-01-18T05:17:16.796Z,428
2023-01-18T05:37:16.769Z,430
2023-01-18T05:57:16.751Z,428
2023-01-18T06:17:16.786Z,422
2023-01-18T06:37:16.786Z,425
2023-01-18T06:57:16.835Z,420
2023-01-18T07:17:16.875Z,423
2023-01-18T07:37:16.871Z,424
2023-01-18T07:57:16.899Z,421
2023-01-18T08:17:16.940Z,422
2023-01-18T08:37:16.970Z,416
2023-01-18T08:57:17.015Z,425
2023-01-18T09:17:16.841Z,424
2023-01-18T09:37:17.049Z,416
2023-01-18T09:57:17.074Z,420
2023-01-18T10:17:17.114Z,425
2023-01-18T10:37:17.182Z,424
2023-01-18T10:57:16.656Z,422
2023-01-18T11:37:17.218Z,417
2023-01-18T11:57:17.235Z,420
2023-01-18T12:37:17.269Z,422
2023-01-18T12:57:16.817Z,420
2023-01-18T13:37:17.353Z,416
2023-01-18T13:57:16.870Z,414
2023-01-18T14:17:17.395Z,417
2023-01-18T14:37:17.377Z,421
2023-01-18T14:57:17.410Z,411
2023-01-18T15:17:17.431Z,412
2023-01-18T15:37:17.502Z,410
2023-01-18T15:57:16.978Z,412
2023-01-18T16:17:17.509Z,406
2023-01-18T16:57:17.521Z,408
2023-01-18T17:17:17.528Z,408
2023-01-18T17:37:17.581Z,413
2023-01-18T17:57:17.068Z,410
2023-01-18T18:17:17.588Z,409
2023-01-18T18:37:17.618Z,403
2023-01-18T18:57:17.126Z,404
2023-01-18T19:17:25.276Z,405
2023-01-18T19:37:17.681Z,404
2023-01-18T19:57:17.710Z,396
2023-01-18T20:17:17.727Z,404
2023-01-18T20:37:17.745Z,405
2023-01-18T20:57:17.769Z,403
2023-01-18T21:17:17.798Z,407
2023-01-18T21:37:17.836Z,399
2023-01-18T22:17:17.858Z,397
2023-01-18T22:37:17.691Z,397
2023-01-18T22:57:17.891Z,396
2023-01-18T23:17:17.418Z,396
2023-01-18T23:37:17.947Z,400
2023-01-18T23:57:17.930Z,396
